Aeroporto :







RITROVATECI SU...

 
LOGIN :

Iscrizione | Disclaimer

   EN    FR    IT 

 









Sommario :    VFR   VFR Marginale   IFR   IFR Intensivo   IFR Molto Intensivo
Visibilità : 
Base nubi : 
>= 8 km
>= 3000ft
5 / 8 km
1000 / 3000 ft
1500m / 5 km
500 / 1000 ft
800 / 1500m
200 / 500 ft
< 800m
< 200 ft
Simboli :   Temporali  Nebbia  Neve Forte  Precipitazioni Forti  Vento > 20 kt






- Altitudine del aeroporto : 68 ft
- Codice IATA : YFC


CYFC - Fredericton

ULTIMO METAR :
  • 171100Z AUTO VRB02KT 9SM FEW060 M07/M08 A2998 RMK SLP156

METARs OBSOLETI :
  • 171000Z AUTO 17003KT 9SM SCT055 OVC066 M07/M07 A2998 RMK SLP155
  • 170952Z AUTO 00000KT 6SM BR SCT050 OVC065 M07/M07 A2998 RMK SLP156
  • 170906Z AUTO 00000KT 6SM BR BKN050 M07/M08 A2998 RMK SLP155

TAF TAF CYFC
Valido dal 17 a 12 ore il 18 a 00 ore UTC


171139Z 1712/1724 VRB03KT P6SM SCT040
BECMG 1713/1715 28010KT RMK FCST BASED ON AUTO OBS. NXT FCST BY 171800Z



MetMap, La meteo Aeronautica in un colpo d'occhio ! - Copyright ORBIFLY Dicembre 2007 - Disclaimer

ORBIFLY MET'MAP TEAM :

Programmazione e sviluppo : Alexandra Zaïnal
Concezione : Baudouin d'Aumeries
Aiuto per la programmazione : Marc-Olivier Méhu
Supporto tecnico e logistico : Manuel Goepfert
Aiuto per la traduzione : Arnaldo La Scala

Contatto : metmap@orbifly.com




FONTI E CREDITI :

   NOAA